sensor_id;sensor_type;location;lat;lon;timestamp;temperature;humidity
68251;DHT22;55066;51.560;4.642;2023-08-06T00:00:04;14.74;99.99
68251;DHT22;55066;51.560;4.642;2023-08-06T00:02:34;14.71;99.99
68251;DHT22;55066;51.560;4.642;2023-08-06T00:05:00;14.84;99.99
68251;DHT22;55066;51.560;4.642;2023-08-06T00:07:25;14.81;99.99
68251;DHT22;55066;51.560;4.642;2023-08-06T00:09:51;14.77;99.99
68251;DHT22;55066;51.560;4.642;2023-08-06T00:12:16;14.74;99.99
68251;DHT22;55066;51.560;4.642;2023-08-06T00:14:41;14.83;99.99
68251;DHT22;55066;51.560;4.642;2023-08-06T00:17:07;14.78;99.99
68251;DHT22;55066;51.560;4.642;2023-08-06T00:19:33;14.71;99.99
68251;DHT22;55066;51.560;4.642;2023-08-06T00:21:58;14.70;99.99
68251;DHT22;55066;51.560;4.642;2023-08-06T00:24:24;14.74;99.99
68251;DHT22;55066;51.560;4.642;2023-08-06T00:26:49;14.76;99.99
68251;DHT22;55066;51.560;4.642;2023-08-06T00:29:15;14.63;99.99
68251;DHT22;55066;51.560;4.642;2023-08-06T00:31:41;14.64;99.99
68251;DHT22;55066;51.560;4.642;2023-08-06T00:34:06;14.68;99.99
68251;DHT22;55066;51.560;4.642;2023-08-06T00:36:32;14.64;99.99
68251;DHT22;55066;51.560;4.642;2023-08-06T00:38:57;14.63;99.99
68251;DHT22;55066;51.560;4.642;2023-08-06T00:41:23;14.71;99.99
68251;DHT22;55066;51.560;4.642;2023-08-06T00:43:48;14.68;99.99
68251;DHT22;55066;51.560;4.642;2023-08-06T00:46:14;14.66;99.99
68251;DHT22;55066;51.560;4.642;2023-08-06T00:48:40;14.78;99.99
68251;DHT22;55066;51.560;4.642;2023-08-06T00:51:09;14.71;99.99
68251;DHT22;55066;51.560;4.642;2023-08-06T00:53:35;14.64;99.99
68251;DHT22;55066;51.560;4.642;2023-08-06T00:56:02;14.67;99.99
68251;DHT22;55066;51.560;4.642;2023-08-06T00:58:28;14.70;99.99
68251;DHT22;55066;51.560;4.642;2023-08-06T01:00:54;14.67;99.99
68251;DHT22;55066;51.560;4.642;2023-08-06T01:03:19;14.74;99.99
68251;DHT22;55066;51.560;4.642;2023-08-06T01:05:45;14.67;99.99
68251;DHT22;55066;51.560;4.642;2023-08-06T01:13:24;14.64;99.99
68251;DHT22;55066;51.560;4.642;2023-08-06T01:15:55;14.61;99.99
68251;DHT22;55066;51.560;4.642;2023-08-06T01:18:22;14.55;99.99
68251;DHT22;55066;51.560;4.642;2023-08-06T01:20:48;14.43;99.99
68251;DHT22;55066;51.560;4.642;2023-08-06T01:23:15;14.55;99.99
68251;DHT22;55066;51.560;4.642;2023-08-06T01:31:41;14.56;99.99
68251;DHT22;55066;51.560;4.642;2023-08-06T01:34:17;14.56;99.99
68251;DHT22;55066;51.560;4.642;2023-08-06T01:36:43;14.51;99.99
68251;DHT22;55066;51.560;4.642;2023-08-06T01:39:09;14.57;99.99
68251;DHT22;55066;51.560;4.642;2023-08-06T01:41:35;14.51;99.99
68251;DHT22;55066;51.560;4.642;2023-08-06T01:44:00;14.53;99.99
68251;DHT22;55066;51.560;4.642;2023-08-06T01:46:26;14.55;99.99
68251;DHT22;55066;51.560;4.642;2023-08-06T01:48:51;14.59;99.99
68251;DHT22;55066;51.560;4.642;2023-08-06T01:51:18;14.57;99.99
68251;DHT22;55066;51.560;4.642;2023-08-06T01:53:43;14.67;99.99
68251;DHT22;55066;51.560;4.642;2023-08-06T01:56:09;14.64;99.99
68251;DHT22;55066;51.560;4.642;2023-08-06T01:58:34;14.61;99.99
68251;DHT22;55066;51.560;4.642;2023-08-06T02:01:01;14.56;99.99
68251;DHT22;55066;51.560;4.642;2023-08-06T02:03:26;14.50;99.99
68251;DHT22;55066;51.560;4.642;2023-08-06T02:05:52;14.66;99.99
68251;DHT22;55066;51.560;4.642;2023-08-06T02:08:17;14.60;99.99
68251;DHT22;55066;51.560;4.642;2023-08-06T02:10:43;14.57;99.99
68251;DHT22;55066;51.560;4.642;2023-08-06T02:13:08;14.61;99.99
68251;DHT22;55066;51.560;4.642;2023-08-06T02:15:33;14.68;99.99
68251;DHT22;55066;51.560;4.642;2023-08-06T02:17:59;14.55;99.99
68251;DHT22;55066;51.560;4.642;2023-08-06T02:20:25;14.49;99.99
68251;DHT22;55066;51.560;4.642;2023-08-06T02:22:51;14.49;99.99
68251;DHT22;55066;51.560;4.642;2023-08-06T02:25:16;14.59;99.99
68251;DHT22;55066;51.560;4.642;2023-08-06T02:27:42;14.60;99.99
68251;DHT22;55066;51.560;4.642;2023-08-06T02:30:08;14.63;99.99
68251;DHT22;55066;51.560;4.642;2023-08-06T02:32:33;14.51;99.99
68251;DHT22;55066;51.560;4.642;2023-08-06T02:35:01;14.49;99.99
68251;DHT22;55066;51.560;4.642;2023-08-06T02:37:27;14.61;99.99
68251;DHT22;55066;51.560;4.642;2023-08-06T02:39:52;14.63;99.99
68251;DHT22;55066;51.560;4.642;2023-08-06T02:42:18;14.51;99.99
68251;DHT22;55066;51.560;4.642;2023-08-06T02:44:43;14.67;99.99
68251;DHT22;55066;51.560;4.642;2023-08-06T02:47:09;14.53;99.99
68251;DHT22;55066;51.560;4.642;2023-08-06T02:49:34;14.60;99.99
68251;DHT22;55066;51.560;4.642;2023-08-06T02:52:00;14.49;99.99
68251;DHT22;55066;51.560;4.642;2023-08-06T02:54:25;14.55;99.99
68251;DHT22;55066;51.560;4.642;2023-08-06T02:56:51;14.61;99.99
68251;DHT22;55066;51.560;4.642;2023-08-06T02:59:29;14.63;99.99
68251;DHT22;55066;51.560;4.642;2023-08-06T03:02:05;14.53;99.99
68251;DHT22;55066;51.560;4.642;2023-08-06T03:04:41;14.56;99.99
68251;DHT22;55066;51.560;4.642;2023-08-06T03:07:08;14.46;99.99
68251;DHT22;55066;51.560;4.642;2023-08-06T03:09:42;14.61;99.99
68251;DHT22;55066;51.560;4.642;2023-08-06T03:12:08;14.57;99.99
68251;DHT22;55066;51.560;4.642;2023-08-06T03:14:33;14.44;99.99
68251;DHT22;55066;51.560;4.642;2023-08-06T03:16:59;14.51;99.99
68251;DHT22;55066;51.560;4.642;2023-08-06T03:19:24;14.47;99.99
68251;DHT22;55066;51.560;4.642;2023-08-06T03:21:50;14.47;99.99
68251;DHT22;55066;51.560;4.642;2023-08-06T03:24:16;14.51;99.99
68251;DHT22;55066;51.560;4.642;2023-08-06T03:26:43;14.47;99.99
68251;DHT22;55066;51.560;4.642;2023-08-06T03:29:09;14.55;99.99
68251;DHT22;55066;51.560;4.642;2023-08-06T03:31:35;14.60;99.99
68251;DHT22;55066;51.560;4.642;2023-08-06T03:34:00;14.57;99.99
68251;DHT22;55066;51.560;4.642;2023-08-06T03:36:28;14.43;99.99
68251;DHT22;55066;51.560;4.642;2023-08-06T03:38:54;14.39;99.99
68251;DHT22;55066;51.560;4.642;2023-08-06T03:41:19;14.51;99.99
68251;DHT22;55066;51.560;4.642;2023-08-06T03:43:45;14.47;99.99
68251;DHT22;55066;51.560;4.642;2023-08-06T03:46:17;14.46;99.99
68251;DHT22;55066;51.560;4.642;2023-08-06T03:48:43;14.43;99.99
68251;DHT22;55066;51.560;4.642;2023-08-06T03:51:08;14.71;99.99
68251;DHT22;55066;51.560;4.642;2023-08-06T03:53:34;14.57;99.99
68251;DHT22;55066;51.560;4.642;2023-08-06T03:56:00;14.50;99.99
68251;DHT22;55066;51.560;4.642;2023-08-06T03:58:26;14.51;99.99
68251;DHT22;55066;51.560;4.642;2023-08-06T04:01:02;14.46;99.99
68251;DHT22;55066;51.560;4.642;2023-08-06T04:03:33;14.55;99.99
68251;DHT22;55066;51.560;4.642;2023-08-06T04:05:58;14.55;99.99
68251;DHT22;55066;51.560;4.642;2023-08-06T04:08:24;14.56;99.99
68251;DHT22;55066;51.560;4.642;2023-08-06T04:10:52;14.56;99.99
68251;DHT22;55066;51.560;4.642;2023-08-06T04:13:18;14.47;99.99
68251;DHT22;55066;51.560;4.642;2023-08-06T04:15:44;14.61;99.99
68251;DHT22;55066;51.560;4.642;2023-08-06T04:18:09;14.57;99.99
68251;DHT22;55066;51.560;4.642;2023-08-06T04:20:35;14.30;99.99
68251;DHT22;55066;51.560;4.642;2023-08-06T04:23:07;14.32;99.99
68251;DHT22;55066;51.560;4.642;2023-08-06T04:25:32;14.22;99.99
68251;DHT22;55066;51.560;4.642;2023-08-06T04:27:58;14.28;99.99
68251;DHT22;55066;51.560;4.642;2023-08-06T04:30:24;14.09;99.99
68251;DHT22;55066;51.560;4.642;2023-08-06T04:32:49;13.85;99.99
68251;DHT22;55066;51.560;4.642;2023-08-06T04:35:16;14.00;99.99
68251;DHT22;55066;51.560;4.642;2023-08-06T04:37:41;13.85;99.99
68251;DHT22;55066;51.560;4.642;2023-08-06T04:40:07;14.08;99.99
68251;DHT22;55066;51.560;4.642;2023-08-06T04:42:33;14.09;99.99
68251;DHT22;55066;51.560;4.642;2023-08-06T04:45:00;13.75;99.99
68251;DHT22;55066;51.560;4.642;2023-08-06T04:47:26;14.15;99.99
68251;DHT22;55066;51.560;4.642;2023-08-06T04:49:51;14.01;99.99
68251;DHT22;55066;51.560;4.642;2023-08-06T04:52:16;14.08;99.99
68251;DHT22;55066;51.560;4.642;2023-08-06T04:54:43;14.00;99.99
68251;DHT22;55066;51.560;4.642;2023-08-06T04:57:09;14.12;99.99
68251;DHT22;55066;51.560;4.642;2023-08-06T04:59:35;14.11;99.99
68251;DHT22;55066;51.560;4.642;2023-08-06T05:02:00;14.00;99.99
68251;DHT22;55066;51.560;4.642;2023-08-06T05:04:25;14.05;99.99
68251;DHT22;55066;51.560;4.642;2023-08-06T05:06:51;14.08;99.99
68251;DHT22;55066;51.560;4.642;2023-08-06T05:09:16;14.13;99.99
68251;DHT22;55066;51.560;4.642;2023-08-06T05:11:42;14.26;99.99
68251;DHT22;55066;51.560;4.642;2023-08-06T05:14:07;14.23;99.99
68251;DHT22;55066;51.560;4.642;2023-08-06T05:16:32;14.12;99.99
68251;DHT22;55066;51.560;4.642;2023-08-06T05:18:58;14.29;99.99
68251;DHT22;55066;51.560;4.642;2023-08-06T05:21:23;14.08;99.99
68251;DHT22;55066;51.560;4.642;2023-08-06T05:23:49;14.12;99.99
68251;DHT22;55066;51.560;4.642;2023-08-06T05:26:14;14.12;99.99
68251;DHT22;55066;51.560;4.642;2023-08-06T05:28:44;14.08;99.99
68251;DHT22;55066;51.560;4.642;2023-08-06T05:31:10;13.97;99.99
68251;DHT22;55066;51.560;4.642;2023-08-06T05:33:35;13.98;99.99
68251;DHT22;55066;51.560;4.642;2023-08-06T05:36:01;14.04;99.99
68251;DHT22;55066;51.560;4.642;2023-08-06T05:38:26;13.92;99.99
68251;DHT22;55066;51.560;4.642;2023-08-06T05:40:52;14.08;99.99
68251;DHT22;55066;51.560;4.642;2023-08-06T05:43:17;14.04;99.99
68251;DHT22;55066;51.560;4.642;2023-08-06T05:45:46;13.98;99.99
68251;DHT22;55066;51.560;4.642;2023-08-06T05:48:12;14.09;99.99
68251;DHT22;55066;51.560;4.642;2023-08-06T05:50:37;14.22;99.99
68251;DHT22;55066;51.560;4.642;2023-08-06T05:53:03;14.22;99.99
68251;DHT22;55066;51.560;4.642;2023-08-06T05:55:28;14.13;99.99
68251;DHT22;55066;51.560;4.642;2023-08-06T05:57:54;14.11;99.99
68251;DHT22;55066;51.560;4.642;2023-08-06T06:00:21;14.05;99.99
68251;DHT22;55066;51.560;4.642;2023-08-06T06:02:46;14.30;99.99
68251;DHT22;55066;51.560;4.642;2023-08-06T06:05:12;14.20;99.99
68251;DHT22;55066;51.560;4.642;2023-08-06T06:07:37;14.30;99.99
68251;DHT22;55066;51.560;4.642;2023-08-06T06:10:03;14.09;99.99
68251;DHT22;55066;51.560;4.642;2023-08-06T06:12:28;14.01;99.99
68251;DHT22;55066;51.560;4.642;2023-08-06T06:14:54;14.18;99.99
68251;DHT22;55066;51.560;4.642;2023-08-06T06:17:20;14.13;99.99
68251;DHT22;55066;51.560;4.642;2023-08-06T06:19:45;14.34;99.99
68251;DHT22;55066;51.560;4.642;2023-08-06T06:22:12;14.22;99.99
68251;DHT22;55066;51.560;4.642;2023-08-06T06:24:37;14.20;99.99
68251;DHT22;55066;51.560;4.642;2023-08-06T06:27:03;14.20;99.99
68251;DHT22;55066;51.560;4.642;2023-08-06T06:29:28;14.33;99.99
68251;DHT22;55066;51.560;4.642;2023-08-06T06:31:54;14.28;99.99
68251;DHT22;55066;51.560;4.642;2023-08-06T06:34:19;14.26;99.99
68251;DHT22;55066;51.560;4.642;2023-08-06T06:36:45;14.33;99.99
68251;DHT22;55066;51.560;4.642;2023-08-06T06:39:10;14.32;99.99
68251;DHT22;55066;51.560;4.642;2023-08-06T06:41:35;14.36;99.99
68251;DHT22;55066;51.560;4.642;2023-08-06T06:44:10;14.23;99.99
68251;DHT22;55066;51.560;4.642;2023-08-06T06:46:35;14.37;99.99
68251;DHT22;55066;51.560;4.642;2023-08-06T06:49:01;14.20;99.99
68251;DHT22;55066;51.560;4.642;2023-08-06T06:51:26;14.26;99.99
68251;DHT22;55066;51.560;4.642;2023-08-06T06:53:51;14.18;99.99
68251;DHT22;55066;51.560;4.642;2023-08-06T06:56:17;14.25;99.99
68251;DHT22;55066;51.560;4.642;2023-08-06T06:58:42;14.26;99.99
68251;DHT22;55066;51.560;4.642;2023-08-06T07:01:08;14.25;99.99
68251;DHT22;55066;51.560;4.642;2023-08-06T07:03:36;14.16;99.99
68251;DHT22;55066;51.560;4.642;2023-08-06T07:06:01;14.30;99.99
68251;DHT22;55066;51.560;4.642;2023-08-06T07:08:27;14.37;99.99
68251;DHT22;55066;51.560;4.642;2023-08-06T07:11:03;14.33;99.99
68251;DHT22;55066;51.560;4.642;2023-08-06T07:13:29;14.41;99.99
68251;DHT22;55066;51.560;4.642;2023-08-06T07:15:55;14.46;99.99
68251;DHT22;55066;51.560;4.642;2023-08-06T07:18:21;14.51;99.99
68251;DHT22;55066;51.560;4.642;2023-08-06T07:20:50;14.53;99.99
68251;DHT22;55066;51.560;4.642;2023-08-06T07:23:16;14.60;99.99
68251;DHT22;55066;51.560;4.642;2023-08-06T07:25:41;14.56;99.99
68251;DHT22;55066;51.560;4.642;2023-08-06T07:28:08;14.57;99.99
68251;DHT22;55066;51.560;4.642;2023-08-06T07:30:33;14.74;99.99
68251;DHT22;55066;51.560;4.642;2023-08-06T07:32:58;14.76;99.99
68251;DHT22;55066;51.560;4.642;2023-08-06T07:35:24;14.84;99.99
68251;DHT22;55066;51.560;4.642;2023-08-06T07:37:49;15.01;99.99
68251;DHT22;55066;51.560;4.642;2023-08-06T07:40:15;15.04;99.99
68251;DHT22;55066;51.560;4.642;2023-08-06T07:42:40;15.19;99.99
68251;DHT22;55066;51.560;4.642;2023-08-06T07:45:07;15.28;99.99
68251;DHT22;55066;51.560;4.642;2023-08-06T07:47:32;15.40;99.99
68251;DHT22;55066;51.560;4.642;2023-08-06T07:49:58;15.33;99.99
68251;DHT22;55066;51.560;4.642;2023-08-06T07:52:23;15.49;99.99
68251;DHT22;55066;51.560;4.642;2023-08-06T07:54:49;15.64;99.99
68251;DHT22;55066;51.560;4.642;2023-08-06T07:57:14;15.61;99.99
68251;DHT22;55066;51.560;4.642;2023-08-06T07:59:40;15.71;99.99
68251;DHT22;55066;51.560;4.642;2023-08-06T08:02:06;15.60;99.99
68251;DHT22;55066;51.560;4.642;2023-08-06T08:04:31;15.59;99.99
68251;DHT22;55066;51.560;4.642;2023-08-06T08:06:57;15.84;99.99
68251;DHT22;55066;51.560;4.642;2023-08-06T08:09:22;15.97;99.99
68251;DHT22;55066;51.560;4.642;2023-08-06T08:11:48;15.93;99.99
68251;DHT22;55066;51.560;4.642;2023-08-06T08:14:13;15.96;99.99
68251;DHT22;55066;51.560;4.642;2023-08-06T08:16:39;15.73;99.99
68251;DHT22;55066;51.560;4.642;2023-08-06T08:19:04;15.78;99.99
68251;DHT22;55066;51.560;4.642;2023-08-06T08:21:29;15.93;99.99
68251;DHT22;55066;51.560;4.642;2023-08-06T08:23:55;15.90;99.95
68251;DHT22;55066;51.560;4.642;2023-08-06T08:26:20;15.93;99.99
68251;DHT22;55066;51.560;4.642;2023-08-06T08:28:46;15.84;99.99
68251;DHT22;55066;51.560;4.642;2023-08-06T08:31:11;15.96;99.99
68251;DHT22;55066;51.560;4.642;2023-08-06T08:33:40;16.11;99.96
68251;DHT22;55066;51.560;4.642;2023-08-06T08:36:05;16.09;99.99
68251;DHT22;55066;51.560;4.642;2023-08-06T08:38:31;16.14;99.99
68251;DHT22;55066;51.560;4.642;2023-08-06T08:40:56;16.08;99.99
68251;DHT22;55066;51.560;4.642;2023-08-06T08:43:22;16.15;99.99
68251;DHT22;55066;51.560;4.642;2023-08-06T08:45:53;16.12;99.99
68251;DHT22;55066;51.560;4.642;2023-08-06T08:48:24;16.29;99.99
68251;DHT22;55066;51.560;4.642;2023-08-06T08:50:51;16.36;99.99
68251;DHT22;55066;51.560;4.642;2023-08-06T08:53:17;16.21;99.99
68251;DHT22;55066;51.560;4.642;2023-08-06T08:55:46;16.21;99.99
68251;DHT22;55066;51.560;4.642;2023-08-06T08:58:12;16.26;99.99
68251;DHT22;55066;51.560;4.642;2023-08-06T09:00:40;16.32;99.99
68251;DHT22;55066;51.560;4.642;2023-08-06T09:03:07;16.57;99.99
68251;DHT22;55066;51.560;4.642;2023-08-06T09:05:33;16.67;99.99
68251;DHT22;55066;51.560;4.642;2023-08-06T09:08:03;16.67;99.99
68251;DHT22;55066;51.560;4.642;2023-08-06T09:10:29;16.57;99.99
68251;DHT22;55066;51.560;4.642;2023-08-06T09:12:57;16.64;99.99
68251;DHT22;55066;51.560;4.642;2023-08-06T09:15:26;16.51;99.99
68251;DHT22;55066;51.560;4.642;2023-08-06T09:17:53;16.49;99.99
68251;DHT22;55066;51.560;4.642;2023-08-06T09:20:19;16.66;99.99
68251;DHT22;55066;51.560;4.642;2023-08-06T09:22:44;16.88;99.99
68251;DHT22;55066;51.560;4.642;2023-08-06T09:25:10;16.79;99.99
68251;DHT22;55066;51.560;4.642;2023-08-06T09:27:39;16.72;99.99
68251;DHT22;55066;51.560;4.642;2023-08-06T09:30:06;16.69;99.99
68251;DHT22;55066;51.560;4.642;2023-08-06T09:32:48;16.67;99.11
68251;DHT22;55066;51.560;4.642;2023-08-06T09:35:17;16.70;99.99
68251;DHT22;55066;51.560;4.642;2023-08-06T09:37:43;16.59;99.99
68251;DHT22;55066;51.560;4.642;2023-08-06T09:40:24;16.76;99.99
68251;DHT22;55066;51.560;4.642;2023-08-06T09:42:50;16.81;99.79
68251;DHT22;55066;51.560;4.642;2023-08-06T09:45:16;16.88;99.99
68251;DHT22;55066;51.560;4.642;2023-08-06T09:47:42;17.03;99.59
68251;DHT22;55066;51.560;4.642;2023-08-06T09:50:16;16.90;99.07
68251;DHT22;55066;51.560;4.642;2023-08-06T09:52:43;16.80;99.15
68251;DHT22;55066;51.560;4.642;2023-08-06T09:55:11;16.94;99.99
68251;DHT22;55066;51.560;4.642;2023-08-06T09:57:37;17.06;99.99
68251;DHT22;55066;51.560;4.642;2023-08-06T10:00:03;17.22;98.32
68251;DHT22;55066;51.560;4.642;2023-08-06T10:02:39;17.45;97.88
68251;DHT22;55066;51.560;4.642;2023-08-06T10:05:05;17.34;97.94
68251;DHT22;55066;51.560;4.642;2023-08-06T10:07:31;17.34;97.53
68251;DHT22;55066;51.560;4.642;2023-08-06T10:09:57;17.31;97.66
68251;DHT22;55066;51.560;4.642;2023-08-06T10:12:23;17.39;97.60
68251;DHT22;55066;51.560;4.642;2023-08-06T10:14:53;17.62;97.12
68251;DHT22;55066;51.560;4.642;2023-08-06T10:17:21;17.84;95.22
68251;DHT22;55066;51.560;4.642;2023-08-06T10:19:48;17.53;93.78
68251;DHT22;55066;51.560;4.642;2023-08-06T10:22:15;17.97;94.84
68251;DHT22;55066;51.560;4.642;2023-08-06T10:24:49;18.32;93.77
68251;DHT22;55066;51.560;4.642;2023-08-06T10:27:30;18.45;92.99
68251;DHT22;55066;51.560;4.642;2023-08-06T10:30:19;18.73;92.88
68251;DHT22;55066;51.560;4.642;2023-08-06T10:32:52;18.62;92.50
68251;DHT22;55066;51.560;4.642;2023-08-06T10:35:50;18.47;92.46
68251;DHT22;55066;51.560;4.642;2023-08-06T10:38:20;18.30;93.58
68251;DHT22;55066;51.560;4.642;2023-08-06T10:43:32;18.66;95.48
68251;DHT22;55066;51.560;4.642;2023-08-06T10:45:59;19.13;94.25
68251;DHT22;55066;51.560;4.642;2023-08-06T10:48:45;19.04;93.84
68251;DHT22;55066;51.560;4.642;2023-08-06T10:51:12;18.56;96.02
68251;DHT22;55066;51.560;4.642;2023-08-06T10:53:43;18.21;95.26
68251;DHT22;55066;51.560;4.642;2023-08-06T10:56:19;18.39;96.09
68251;DHT22;55066;51.560;4.642;2023-08-06T10:58:46;18.14;94.73
68251;DHT22;55066;51.560;4.642;2023-08-06T11:01:12;18.48;95.27
68251;DHT22;55066;51.560;4.642;2023-08-06T11:03:39;18.27;95.48
68251;DHT22;55066;51.560;4.642;2023-08-06T11:06:06;18.52;94.77
68251;DHT22;55066;51.560;4.642;2023-08-06T11:08:37;18.41;93.84
68251;DHT22;55066;51.560;4.642;2023-08-06T11:11:10;18.56;93.86
68251;DHT22;55066;51.560;4.642;2023-08-06T11:13:38;18.93;93.79
68251;DHT22;55066;51.560;4.642;2023-08-06T11:16:05;19.10;92.59
68251;DHT22;55066;51.560;4.642;2023-08-06T11:18:32;19.42;91.84
68251;DHT22;55066;51.560;4.642;2023-08-06T11:21:01;19.28;92.63
68251;DHT22;55066;51.560;4.642;2023-08-06T11:23:28;19.66;91.27
68251;DHT22;55066;51.560;4.642;2023-08-06T11:25:57;19.82;91.29
68251;DHT22;55066;51.560;4.642;2023-08-06T11:28:22;19.30;91.52
68251;DHT22;55066;51.560;4.642;2023-08-06T11:30:52;19.25;91.72
68251;DHT22;55066;51.560;4.642;2023-08-06T11:33:35;20.05;91.57
68251;DHT22;55066;51.560;4.642;2023-08-06T11:36:01;19.55;93.09
68251;DHT22;55066;51.560;4.642;2023-08-06T11:38:30;19.55;93.16
68251;DHT22;55066;51.560;4.642;2023-08-06T11:40:55;19.73;93.09
68251;DHT22;55066;51.560;4.642;2023-08-06T11:43:21;19.35;93.08
68251;DHT22;55066;51.560;4.642;2023-08-06T11:45:51;19.28;93.52
68251;DHT22;55066;51.560;4.642;2023-08-06T11:48:19;19.47;93.57
68251;DHT22;55066;51.560;4.642;2023-08-06T11:50:45;19.27;95.32
68251;DHT22;55066;51.560;4.642;2023-08-06T11:53:22;19.27;93.85
68251;DHT22;55066;51.560;4.642;2023-08-06T11:55:52;19.73;94.42
68251;DHT22;55066;51.560;4.642;2023-08-06T11:58:18;20.14;91.66
68251;DHT22;55066;51.560;4.642;2023-08-06T12:00:43;20.23;91.27
68251;DHT22;55066;51.560;4.642;2023-08-06T12:03:09;20.55;91.82
68251;DHT22;55066;51.560;4.642;2023-08-06T12:05:35;20.65;90.48
68251;DHT22;55066;51.560;4.642;2023-08-06T12:08:02;20.33;90.78
68251;DHT22;55066;51.560;4.642;2023-08-06T12:10:29;20.49;90.29
68251;DHT22;55066;51.560;4.642;2023-08-06T12:12:56;19.59;92.25
68251;DHT22;55066;51.560;4.642;2023-08-06T12:15:22;19.59;93.45
68251;DHT22;55066;51.560;4.642;2023-08-06T12:17:49;19.65;94.26
68251;DHT22;55066;51.560;4.642;2023-08-06T12:20:14;19.36;94.46
68251;DHT22;55066;51.560;4.642;2023-08-06T12:22:40;19.14;95.66
68251;DHT22;55066;51.560;4.642;2023-08-06T12:25:07;18.15;99.99
68251;DHT22;55066;51.560;4.642;2023-08-06T12:27:44;17.86;98.26
68251;DHT22;55066;51.560;4.642;2023-08-06T12:30:12;18.07;98.25
68251;DHT22;55066;51.560;4.642;2023-08-06T12:32:38;18.05;97.93
68251;DHT22;55066;51.560;4.642;2023-08-06T12:35:03;17.86;98.79
68251;DHT22;55066;51.560;4.642;2023-08-06T12:37:30;17.67;99.40
68251;DHT22;55066;51.560;4.642;2023-08-06T12:39:55;17.79;99.43
68251;DHT22;55066;51.560;4.642;2023-08-06T12:42:21;18.10;98.30
68251;DHT22;55066;51.560;4.642;2023-08-06T12:44:48;17.96;97.62
68251;DHT22;55066;51.560;4.642;2023-08-06T12:47:15;18.62;97.25
68251;DHT22;55066;51.560;4.642;2023-08-06T12:49:40;18.58;96.39
68251;DHT22;55066;51.560;4.642;2023-08-06T12:52:06;18.90;95.64
68251;DHT22;55066;51.560;4.642;2023-08-06T12:54:32;18.93;94.81
68251;DHT22;55066;51.560;4.642;2023-08-06T12:57:04;18.55;95.56
68251;DHT22;55066;51.560;4.642;2023-08-06T12:59:30;18.52;95.32
68251;DHT22;55066;51.560;4.642;2023-08-06T13:01:56;18.56;95.62
68251;DHT22;55066;51.560;4.642;2023-08-06T13:04:22;18.66;95.57
68251;DHT22;55066;51.560;4.642;2023-08-06T13:06:47;18.76;95.30
68251;DHT22;55066;51.560;4.642;2023-08-06T13:09:13;18.73;93.88
68251;DHT22;55066;51.560;4.642;2023-08-06T13:11:40;18.70;93.96
68251;DHT22;55066;51.560;4.642;2023-08-06T13:14:10;18.77;93.03
68251;DHT22;55066;51.560;4.642;2023-08-06T13:16:37;18.86;93.30
68251;DHT22;55066;51.560;4.642;2023-08-06T13:19:04;18.87;93.12
68251;DHT22;55066;51.560;4.642;2023-08-06T13:24:11;18.65;92.06
68251;DHT22;55066;51.560;4.642;2023-08-06T13:26:36;18.58;92.55
68251;DHT22;55066;51.560;4.642;2023-08-06T13:29:02;18.59;92.55
68251;DHT22;55066;51.560;4.642;2023-08-06T13:31:28;18.27;93.94
68251;DHT22;55066;51.560;4.642;2023-08-06T13:33:54;18.10;94.08
68251;DHT22;55066;51.560;4.642;2023-08-06T13:36:23;18.30;94.43
68251;DHT22;55066;51.560;4.642;2023-08-06T13:38:48;17.98;94.66
68251;DHT22;55066;51.560;4.642;2023-08-06T13:41:14;18.18;94.95
68251;DHT22;55066;51.560;4.642;2023-08-06T13:43:40;18.11;95.32
68251;DHT22;55066;51.560;4.642;2023-08-06T13:46:06;17.89;95.32
68251;DHT22;55066;51.560;4.642;2023-08-06T13:48:31;17.52;97.83
68251;DHT22;55066;51.560;4.642;2023-08-06T13:50:57;16.70;99.99
68251;DHT22;55066;51.560;4.642;2023-08-06T13:53:22;16.70;99.98
68251;DHT22;55066;51.560;4.642;2023-08-06T13:55:48;16.46;99.99
68251;DHT22;55066;51.560;4.642;2023-08-06T13:58:13;16.30;99.99
68251;DHT22;55066;51.560;4.642;2023-08-06T14:00:39;16.35;99.99
68251;DHT22;55066;51.560;4.642;2023-08-06T14:03:04;16.19;99.99
68251;DHT22;55066;51.560;4.642;2023-08-06T14:05:30;16.19;99.99
68251;DHT22;55066;51.560;4.642;2023-08-06T14:07:55;16.19;99.99
68251;DHT22;55066;51.560;4.642;2023-08-06T14:10:21;16.42;99.99
68251;DHT22;55066;51.560;4.642;2023-08-06T14:12:46;16.21;99.99
68251;DHT22;55066;51.560;4.642;2023-08-06T14:15:11;16.11;99.99
68251;DHT22;55066;51.560;4.642;2023-08-06T14:17:37;16.07;99.99
68251;DHT22;55066;51.560;4.642;2023-08-06T14:20:04;16.24;99.99
68251;DHT22;55066;51.560;4.642;2023-08-06T14:22:32;16.36;99.99
68251;DHT22;55066;51.560;4.642;2023-08-06T14:24:58;16.19;99.99
68251;DHT22;55066;51.560;4.642;2023-08-06T14:27:24;16.46;99.76
68251;DHT22;55066;51.560;4.642;2023-08-06T14:29:50;16.39;99.66
68251;DHT22;55066;51.560;4.642;2023-08-06T14:32:15;16.14;99.86
68251;DHT22;55066;51.560;4.642;2023-08-06T14:34:43;16.08;99.35
68251;DHT22;55066;51.560;4.642;2023-08-06T14:37:10;15.84;99.95
68251;DHT22;55066;51.560;4.642;2023-08-06T14:39:36;15.86;99.69
68251;DHT22;55066;51.560;4.642;2023-08-06T14:42:01;16.09;99.00
68251;DHT22;55066;51.560;4.642;2023-08-06T14:44:28;16.15;99.98
68251;DHT22;55066;51.560;4.642;2023-08-06T14:46:54;16.05;99.40
68251;DHT22;55066;51.560;4.642;2023-08-06T14:49:19;15.78;99.92
68251;DHT22;55066;51.560;4.642;2023-08-06T14:51:45;15.86;99.99
68251;DHT22;55066;51.560;4.642;2023-08-06T14:54:11;15.86;99.99
68251;DHT22;55066;51.560;4.642;2023-08-06T14:56:36;16.12;99.04
68251;DHT22;55066;51.560;4.642;2023-08-06T14:59:02;16.15;98.77
68251;DHT22;55066;51.560;4.642;2023-08-06T15:01:28;16.05;99.99
68251;DHT22;55066;51.560;4.642;2023-08-06T15:03:53;15.93;99.99
68251;DHT22;55066;51.560;4.642;2023-08-06T15:06:18;16.07;99.99
68251;DHT22;55066;51.560;4.642;2023-08-06T15:08:44;15.91;99.99
68251;DHT22;55066;51.560;4.642;2023-08-06T15:11:13;16.02;99.59
68251;DHT22;55066;51.560;4.642;2023-08-06T15:13:38;15.80;99.99
68251;DHT22;55066;51.560;4.642;2023-08-06T15:16:04;15.74;99.99
68251;DHT22;55066;51.560;4.642;2023-08-06T15:18:29;15.86;99.99
68251;DHT22;55066;51.560;4.642;2023-08-06T15:20:54;15.80;99.99
68251;DHT22;55066;51.560;4.642;2023-08-06T15:23:21;15.26;99.99
68251;DHT22;55066;51.560;4.642;2023-08-06T15:25:46;15.14;99.99
68251;DHT22;55066;51.560;4.642;2023-08-06T15:28:12;15.19;99.99
68251;DHT22;55066;51.560;4.642;2023-08-06T15:30:37;15.16;99.99
68251;DHT22;55066;51.560;4.642;2023-08-06T15:33:03;15.60;99.99
68251;DHT22;55066;51.560;4.642;2023-08-06T15:35:28;15.39;99.99
68251;DHT22;55066;51.560;4.642;2023-08-06T15:37:54;15.47;99.99
68251;DHT22;55066;51.560;4.642;2023-08-06T15:40:19;15.44;99.99
68251;DHT22;55066;51.560;4.642;2023-08-06T15:42:45;15.54;99.99